createdAt,value
2018-09-21T00:01:19.848Z,20.73
2018-09-21T00:03:53.687Z,20.75
2018-09-21T00:06:23.208Z,20.79
2018-09-21T00:08:52.704Z,20.85
2018-09-21T00:11:21.514Z,20.98
2018-09-21T00:13:51.020Z,21.07
2018-09-21T00:16:21.104Z,21.16
2018-09-21T00:18:51.462Z,21.22
2018-09-21T00:21:20.223Z,21.34
2018-09-21T00:23:49.056Z,21.43
2018-09-21T00:26:17.875Z,21.49
2018-09-21T00:28:46.397Z,21.52
2018-09-21T00:31:15.259Z,21.58
2018-09-21T00:33:44.089Z,21.66
2018-09-21T00:36:13.019Z,21.70
2018-09-21T00:38:42.097Z,21.73
2018-09-21T00:41:10.951Z,21.75
2018-09-21T00:43:40.464Z,21.80
2018-09-21T00:46:09.258Z,21.79
2018-09-21T00:48:38.175Z,21.74
2018-09-21T00:51:06.993Z,21.70
2018-09-21T00:53:36.329Z,21.72
2018-09-21T00:56:06.537Z,21.72
2018-09-21T00:58:35.250Z,21.74
2018-09-21T01:01:04.470Z,21.78
2018-09-21T01:03:33.169Z,21.77
2018-09-21T01:06:02.044Z,21.71
2018-09-21T01:08:31.407Z,21.72
2018-09-21T01:11:00.201Z,21.64
2018-09-21T01:13:29.160Z,21.58
2018-09-21T01:15:57.969Z,21.55
2018-09-21T01:18:26.807Z,21.54
2018-09-21T01:20:55.684Z,21.47
2018-09-21T01:23:24.342Z,21.46
2018-09-21T01:25:53.782Z,21.43
2018-09-21T01:28:22.447Z,21.42
2018-09-21T01:30:51.147Z,21.42
2018-09-21T01:33:20.026Z,21.42
2018-09-21T01:35:49.007Z,21.39
2018-09-21T01:38:17.635Z,21.35
2018-09-21T01:40:47.496Z,21.36
2018-09-21T01:43:16.249Z,21.32
2018-09-21T01:45:44.916Z,21.32
2018-09-21T01:48:13.971Z,21.31
2018-09-21T01:50:42.604Z,21.33
2018-09-21T01:53:11.306Z,21.33
2018-09-21T01:55:40.070Z,21.35
2018-09-21T01:58:08.745Z,21.33
2018-09-21T02:00:37.596Z,21.34
2018-09-21T02:03:06.099Z,21.33
2018-09-21T02:05:34.709Z,21.33
2018-09-21T02:08:04.209Z,21.27
2018-09-21T02:10:33.334Z,21.26
2018-09-21T02:13:02.051Z,21.31
2018-09-21T02:15:30.853Z,21.29
2018-09-21T02:17:59.565Z,21.28
2018-09-21T02:20:28.638Z,21.31
2018-09-21T02:22:57.248Z,21.33
2018-09-21T02:25:25.899Z,21.30
2018-09-21T02:27:54.734Z,21.27
2018-09-21T02:30:23.934Z,21.28
2018-09-21T02:32:52.588Z,21.29
2018-09-21T02:35:22.210Z,21.31
2018-09-21T02:37:50.855Z,21.27
2018-09-21T02:40:19.443Z,21.25
2018-09-21T02:42:48.131Z,21.25
2018-09-21T02:45:16.860Z,21.26
2018-09-21T02:47:45.452Z,21.27
2018-09-21T02:50:14.225Z,21.26
2018-09-21T02:52:43.024Z,21.26
2018-09-21T02:55:11.628Z,21.29
2018-09-21T02:57:40.291Z,21.27
2018-09-21T03:00:10.055Z,21.29
2018-09-21T03:02:38.802Z,21.30
2018-09-21T03:05:07.575Z,21.31
2018-09-21T03:07:36.384Z,21.34
2018-09-21T03:10:05.162Z,21.32
2018-09-21T03:12:33.799Z,21.31
2018-09-21T03:15:03.359Z,21.32
2018-09-21T03:17:32.063Z,21.34
2018-09-21T03:20:07.314Z,21.34
2018-09-21T03:22:36.517Z,21.35
2018-09-21T03:25:05.244Z,21.37
2018-09-21T03:27:34.155Z,21.35
2018-09-21T03:30:04.066Z,21.36
2018-09-21T03:32:32.961Z,21.37
2018-09-21T03:35:02.579Z,21.41
2018-09-21T03:37:31.200Z,21.42
2018-09-21T03:40:00.034Z,21.46
2018-09-21T03:42:28.651Z,21.48
2018-09-21T03:44:57.178Z,21.50
2018-09-21T03:47:25.901Z,21.49
2018-09-21T03:49:54.636Z,21.52
2018-09-21T03:52:24.229Z,21.53
2018-09-21T03:54:52.961Z,21.53
2018-09-21T03:57:21.715Z,21.55
2018-09-21T03:59:50.329Z,21.55
2018-09-21T04:02:19.816Z,21.55
2018-09-21T04:04:48.617Z,21.54
2018-09-21T04:07:18.452Z,21.48
2018-09-21T04:09:47.297Z,21.45
2018-09-21T04:12:16.245Z,21.46
2018-09-21T04:14:44.947Z,21.47
2018-09-21T04:17:13.682Z,21.47
2018-09-21T04:19:43.630Z,21.46
2018-09-21T04:22:12.407Z,21.44
2018-09-21T04:24:41.295Z,21.42
2018-09-21T04:27:09.999Z,21.44
2018-09-21T04:29:38.638Z,21.46
2018-09-21T04:32:07.248Z,21.47
2018-09-21T04:34:35.927Z,21.46
2018-09-21T04:37:04.743Z,21.47
2018-09-21T04:39:33.629Z,21.46
2018-09-21T04:42:02.527Z,21.48
2018-09-21T04:44:31.286Z,21.45
2018-09-21T04:47:00.148Z,21.46
2018-09-21T04:49:28.808Z,21.46
2018-09-21T04:51:59.067Z,21.43
2018-09-21T04:54:27.772Z,21.41
2018-09-21T04:56:56.476Z,21.39
2018-09-21T04:59:27.058Z,21.37
2018-09-21T05:01:55.672Z,21.37
2018-09-21T05:04:24.614Z,21.39
2018-09-21T05:06:53.446Z,21.40
2018-09-21T05:09:22.138Z,21.43
2018-09-21T05:11:50.887Z,21.45
2018-09-21T05:14:19.698Z,21.48
2018-09-21T05:16:48.359Z,21.51
2018-09-21T05:19:17.090Z,21.50
2018-09-21T05:21:46.132Z,21.53
2018-09-21T05:24:14.827Z,21.58
2018-09-21T05:26:43.556Z,21.65
2018-09-21T05:29:12.296Z,21.66
2018-09-21T05:31:40.982Z,21.70
2018-09-21T05:34:09.675Z,21.74
2018-09-21T05:36:38.357Z,21.79
2018-09-21T05:39:11.297Z,21.83
2018-09-21T05:41:40.216Z,21.87
2018-09-21T05:44:09.965Z,21.91
2018-09-21T05:46:42.835Z,21.91
2018-09-21T05:49:11.771Z,21.95
2018-09-21T05:51:42.423Z,21.97
2018-09-21T05:54:11.197Z,22.01
2018-09-21T05:56:41.355Z,22.02
2018-09-21T05:59:10.321Z,22.04
2018-09-21T06:01:39.025Z,22.06
2018-09-21T06:04:07.747Z,22.07
2018-09-21T06:06:37.728Z,22.10
2018-09-21T06:09:08.993Z,22.11
2018-09-21T06:11:38.004Z,22.13
2018-09-21T06:14:07.331Z,22.14
2018-09-21T06:16:35.888Z,22.14
2018-09-21T06:19:05.339Z,22.19
2018-09-21T06:21:35.156Z,22.23
2018-09-21T06:24:05.990Z,22.27
2018-09-21T06:26:35.134Z,22.31
2018-09-21T06:29:04.411Z,22.37
2018-09-21T06:31:33.123Z,22.42
2018-09-21T06:34:03.389Z,22.48
2018-09-21T06:36:32.250Z,22.54
2018-09-21T06:39:02.769Z,22.63
2018-09-21T06:41:31.408Z,22.68
2018-09-21T06:44:00.281Z,22.76
2018-09-21T06:46:28.970Z,22.83
2018-09-21T06:48:57.577Z,22.90
2018-09-21T06:51:26.802Z,22.94
2018-09-21T06:53:56.128Z,23.00
2018-09-21T06:56:25.000Z,23.02
2018-09-21T06:58:53.778Z,23.07
2018-09-21T07:01:22.817Z,23.09
2018-09-21T07:03:51.450Z,23.11
2018-09-21T07:06:20.638Z,23.14
2018-09-21T07:08:49.650Z,23.16
2018-09-21T07:11:18.477Z,23.19
2018-09-21T07:13:47.628Z,23.21
2018-09-21T07:16:16.947Z,23.23
2018-09-21T07:18:45.620Z,23.26
2018-09-21T07:21:14.298Z,23.29
2018-09-21T07:23:43.241Z,23.35
2018-09-21T07:26:12.117Z,23.39
2018-09-21T07:28:41.433Z,23.42
2018-09-21T07:31:10.254Z,23.44
2018-09-21T07:33:39.259Z,23.46
2018-09-21T07:36:08.196Z,23.48
2018-09-21T07:38:36.779Z,23.53
2018-09-21T07:41:05.602Z,23.61
2018-09-21T07:43:34.380Z,23.73
2018-09-21T07:46:04.469Z,23.79
2018-09-21T07:48:33.092Z,23.87
2018-09-21T07:51:02.604Z,23.93
2018-09-21T07:53:32.721Z,23.99
2018-09-21T07:56:01.559Z,24.03
2018-09-21T07:58:30.518Z,24.07
2018-09-21T08:00:59.183Z,24.10
2018-09-21T08:03:27.880Z,24.15
2018-09-21T08:05:56.809Z,24.20
2018-09-21T08:08:26.130Z,24.22
2018-09-21T08:10:54.891Z,24.26
2018-09-21T08:13:23.430Z,24.28
2018-09-21T08:15:54.677Z,24.31
2018-09-21T08:18:23.489Z,24.36
2018-09-21T08:20:52.097Z,24.39
2018-09-21T08:23:20.784Z,24.42
2018-09-21T08:25:49.402Z,24.45
2018-09-21T08:28:18.666Z,24.50
2018-09-21T08:30:47.402Z,24.53
2018-09-21T08:33:16.345Z,24.54
2018-09-21T08:35:45.042Z,24.55
2018-09-21T08:38:14.067Z,24.56
2018-09-21T08:40:43.032Z,24.59
2018-09-21T08:43:11.808Z,24.60
2018-09-21T08:45:40.507Z,24.62
2018-09-21T08:48:09.262Z,24.61
2018-09-21T08:50:37.871Z,24.61
2018-09-21T08:53:07.146Z,24.61
2018-09-21T08:55:37.023Z,24.61
2018-09-21T08:58:05.849Z,24.62
2018-09-21T09:00:34.857Z,24.66
2018-09-21T09:03:04.720Z,24.69
2018-09-21T09:05:33.415Z,24.66
2018-09-21T09:08:02.847Z,24.62
2018-09-21T09:10:31.567Z,24.59
2018-09-21T09:13:00.226Z,24.57
2018-09-21T09:15:29.843Z,24.58
2018-09-21T09:17:59.549Z,24.57
2018-09-21T09:20:28.400Z,24.59
2018-09-21T09:22:56.961Z,24.62
2018-09-21T09:25:25.758Z,24.67
2018-09-21T09:27:54.426Z,24.69
2018-09-21T09:30:23.271Z,24.72
2018-09-21T09:32:52.026Z,24.75
2018-09-21T09:35:20.912Z,24.77
2018-09-21T09:37:50.137Z,24.75
2018-09-21T09:40:18.918Z,24.77
2018-09-21T09:42:47.690Z,24.76
2018-09-21T09:45:16.372Z,24.75
2018-09-21T09:47:45.716Z,24.70
2018-09-21T09:50:14.720Z,24.66
2018-09-21T09:52:43.714Z,24.63
2018-09-21T09:55:12.492Z,24.63
2018-09-21T09:57:41.995Z,24.62
2018-09-21T10:00:10.881Z,24.62
2018-09-21T10:02:40.073Z,24.66
2018-09-21T10:05:14.558Z,24.66
2018-09-21T10:07:43.183Z,24.66
2018-09-21T10:10:11.993Z,24.62
2018-09-21T10:12:40.722Z,24.60
2018-09-21T10:15:09.792Z,24.60
2018-09-21T10:17:38.507Z,24.62
2018-09-21T10:20:07.308Z,24.61
2018-09-21T10:22:36.100Z,24.64
2018-09-21T10:25:04.777Z,24.62
2018-09-21T10:27:33.839Z,24.62
2018-09-21T10:30:03.808Z,24.60
2018-09-21T10:32:33.049Z,24.57
2018-09-21T10:35:02.527Z,24.52
2018-09-21T10:37:31.330Z,24.45
2018-09-21T10:40:02.003Z,24.39
2018-09-21T10:42:30.875Z,24.34
2018-09-21T10:44:59.639Z,24.29
2018-09-21T10:47:28.316Z,24.27
2018-09-21T10:50:03.681Z,24.25
2018-09-21T10:52:32.799Z,24.21
2018-09-21T10:55:05.565Z,24.11
2018-09-21T10:57:36.088Z,23.96
2018-09-21T11:00:06.749Z,23.67
2018-09-21T11:02:37.381Z,23.34
2018-09-21T11:05:11.035Z,23.00
2018-09-21T11:07:40.696Z,22.62
2018-09-21T11:10:09.708Z,22.34
2018-09-21T11:12:38.719Z,22.08
2018-09-21T11:15:08.391Z,21.96
2018-09-21T11:17:37.416Z,21.46
2018-09-21T11:20:07.395Z,20.33
2018-09-21T11:22:36.142Z,19.22
2018-09-21T11:25:04.943Z,18.55
2018-09-21T11:27:34.048Z,18.03
2018-09-21T11:30:03.271Z,17.86
2018-09-21T11:32:32.009Z,17.61
2018-09-21T11:35:00.641Z,17.43
2018-09-21T11:37:29.665Z,17.41
2018-09-21T11:39:59.237Z,17.44
2018-09-21T11:42:27.974Z,17.36
2018-09-21T11:44:57.269Z,17.27
2018-09-21T11:47:26.307Z,17.38
2018-09-21T11:49:57.615Z,17.42
2018-09-21T11:52:26.425Z,17.42
2018-09-21T11:54:58.477Z,17.42
2018-09-21T11:57:27.308Z,17.37
2018-09-21T11:59:56.196Z,17.27
2018-09-21T12:02:25.041Z,17.28
2018-09-21T12:04:57.409Z,17.35
2018-09-21T12:07:26.414Z,17.35
2018-09-21T12:09:55.806Z,17.26
2018-09-21T12:12:24.726Z,17.31
2018-09-21T12:14:53.825Z,17.33
2018-09-21T12:17:22.648Z,17.21
2018-09-21T12:19:51.901Z,17.17
2018-09-21T12:22:20.877Z,17.06
2018-09-21T12:24:49.838Z,17.15
2018-09-21T12:27:19.890Z,17.28
2018-09-21T12:29:49.173Z,17.29
2018-09-21T12:32:18.011Z,17.29
2018-09-21T12:34:50.197Z,17.46
2018-09-21T12:37:19.119Z,17.48
2018-09-21T12:39:49.299Z,17.32
2018-09-21T12:42:18.324Z,17.45
2018-09-21T12:44:47.333Z,17.51
2018-09-21T12:47:16.531Z,17.48
2018-09-21T12:49:46.838Z,17.61
2018-09-21T12:52:16.103Z,17.79
2018-09-21T12:54:45.910Z,17.95
2018-09-21T12:57:15.274Z,17.92
2018-09-21T12:59:52.332Z,17.87
2018-09-21T13:02:21.947Z,18.01
2018-09-21T13:04:55.031Z,18.13
2018-09-21T13:07:23.841Z,18.23
2018-09-21T13:09:54.246Z,18.19
2018-09-21T13:12:30.498Z,18.25
2018-09-21T13:14:59.669Z,18.21
2018-09-21T13:17:28.363Z,18.15
2018-09-21T13:19:57.096Z,17.98
2018-09-21T13:22:26.071Z,17.80
2018-09-21T13:24:54.885Z,17.80
2018-09-21T13:27:23.883Z,17.92
2018-09-21T13:29:52.639Z,18.02
2018-09-21T13:32:21.793Z,18.12
2018-09-21T13:34:50.573Z,18.12
2018-09-21T13:37:19.384Z,18.07
2018-09-21T13:39:48.398Z,18.14
2018-09-21T13:42:17.204Z,18.24
2018-09-21T13:44:47.120Z,18.25
2018-09-21T13:47:15.925Z,18.31
2018-09-21T13:49:44.999Z,18.36
2018-09-21T13:52:13.932Z,18.37
2018-09-21T13:54:42.781Z,18.37
2018-09-21T13:57:11.811Z,18.44
2018-09-21T13:59:41.657Z,18.48
2018-09-21T14:02:10.878Z,18.26
2018-09-21T14:04:40.136Z,18.27
2018-09-21T14:07:09.126Z,18.17
2018-09-21T14:09:38.987Z,18.05
2018-09-21T14:12:08.794Z,18.12
2018-09-21T14:14:37.738Z,18.21
2018-09-21T14:17:06.820Z,18.17
2018-09-21T14:19:35.849Z,18.18
2018-09-21T14:22:04.667Z,18.23
2018-09-21T14:24:33.501Z,18.16
2018-09-21T14:27:02.874Z,18.11
2018-09-21T14:29:32.748Z,18.01
2018-09-21T14:32:02.324Z,18.03
2018-09-21T14:34:31.311Z,17.98
2018-09-21T14:37:06.810Z,18.01
2018-09-21T14:39:39.304Z,18.11
2018-09-21T14:42:08.453Z,18.05
2018-09-21T14:44:37.312Z,18.09
2018-09-21T14:47:06.417Z,18.05
2018-09-21T14:49:35.318Z,18.00
2018-09-21T14:52:04.318Z,17.82
2018-09-21T14:54:33.116Z,17.78
2018-09-21T14:57:02.981Z,17.83
2018-09-21T14:59:31.539Z,17.89
2018-09-21T15:02:00.296Z,17.84
2018-09-21T15:04:29.264Z,17.94
2018-09-21T15:06:59.103Z,18.04
2018-09-21T15:09:27.932Z,18.11
2018-09-21T15:11:56.613Z,18.19
2018-09-21T15:14:25.437Z,18.17
2018-09-21T15:16:54.224Z,18.19
2018-09-21T15:19:22.993Z,17.83
2018-09-21T15:21:51.796Z,17.89
2018-09-21T15:24:20.444Z,17.80
2018-09-21T15:26:49.410Z,17.84
2018-09-21T15:29:19.388Z,17.80
2018-09-21T15:31:50.137Z,17.78
2018-09-21T15:34:19.074Z,17.80
2018-09-21T15:36:48.168Z,17.95
2018-09-21T15:39:17.161Z,17.99
2018-09-21T15:41:46.391Z,18.09
2018-09-21T15:44:17.546Z,18.11
2018-09-21T15:46:46.479Z,18.16
2018-09-21T15:49:15.701Z,18.13
2018-09-21T15:51:46.127Z,17.98
2018-09-21T15:54:14.976Z,17.90
2018-09-21T15:56:43.930Z,17.88
2018-09-21T15:59:12.969Z,17.80
2018-09-21T16:01:42.141Z,17.90
2018-09-21T16:04:11.216Z,17.99
2018-09-21T16:06:40.063Z,18.02
2018-09-21T16:09:10.172Z,18.02
2018-09-21T16:11:39.432Z,17.99
2018-09-21T16:14:08.735Z,18.06
2018-09-21T16:16:38.300Z,18.05
2018-09-21T16:19:08.549Z,18.01
2018-09-21T16:21:37.451Z,17.96
2018-09-21T16:24:06.293Z,18.00
2018-09-21T16:26:35.032Z,17.88
2018-09-21T16:29:04.799Z,17.82
2018-09-21T16:31:34.444Z,17.82
2018-09-21T16:34:03.628Z,17.84
2018-09-21T16:36:33.347Z,17.82
2018-09-21T16:39:03.832Z,17.83
2018-09-21T16:41:32.526Z,17.72
2018-09-21T16:44:02.171Z,17.69
2018-09-21T16:46:30.973Z,17.74
2018-09-21T16:49:00.020Z,17.63
2018-09-21T16:51:29.463Z,17.56
2018-09-21T16:53:58.360Z,17.49
2018-09-21T16:56:27.007Z,17.44
2018-09-21T16:58:56.743Z,17.42
2018-09-21T17:01:25.727Z,17.56
2018-09-21T17:03:54.413Z,17.68
2018-09-21T17:06:23.464Z,17.79
2018-09-21T17:08:53.107Z,17.84
2018-09-21T17:11:22.906Z,17.82
2018-09-21T17:13:51.672Z,17.66
2018-09-21T17:16:20.479Z,17.62
2018-09-21T17:18:49.191Z,17.63
2018-09-21T17:21:17.733Z,17.77
2018-09-21T17:23:46.721Z,17.65
2018-09-21T17:26:16.361Z,17.49
2018-09-21T17:28:45.094Z,17.43
2018-09-21T17:31:13.645Z,17.40
2018-09-21T17:33:42.490Z,17.37
2018-09-21T17:36:11.300Z,17.38
2018-09-21T17:38:39.995Z,17.21
2018-09-21T17:41:10.027Z,17.25
2018-09-21T17:43:38.784Z,17.19
2018-09-21T17:46:07.520Z,17.12
2018-09-21T17:48:36.190Z,17.18
2018-09-21T17:51:04.992Z,17.13
2018-09-21T17:53:33.716Z,16.98
2018-09-21T17:56:03.807Z,16.99
2018-09-21T17:58:32.567Z,16.97
2018-09-21T18:01:02.002Z,16.97
2018-09-21T18:03:30.601Z,16.92
2018-09-21T18:05:59.399Z,16.90
2018-09-21T18:08:28.926Z,16.89
2018-09-21T18:10:58.165Z,16.97
2018-09-21T18:13:26.981Z,16.89
2018-09-21T18:15:55.792Z,16.77
2018-09-21T18:18:24.665Z,16.80
2018-09-21T18:20:53.427Z,16.81
2018-09-21T18:23:22.214Z,16.87
2018-09-21T18:25:51.204Z,16.78
2018-09-21T18:28:19.787Z,16.84
2018-09-21T18:30:48.937Z,16.82
2018-09-21T18:33:18.591Z,16.68
2018-09-21T18:35:47.717Z,16.64
2018-09-21T18:40:59.305Z,16.52
2018-09-21T18:46:15.819Z,16.42
2018-09-21T18:48:44.761Z,16.42
2018-09-21T18:51:13.837Z,16.45
2018-09-21T18:56:22.923Z,16.51
2018-09-21T18:58:51.918Z,16.50
2018-09-21T19:01:21.058Z,16.54
2018-09-21T19:03:49.768Z,16.55
2018-09-21T19:06:18.421Z,16.42
2018-09-21T19:08:47.079Z,16.41
2018-09-21T19:11:16.085Z,16.31
2018-09-21T19:13:44.924Z,16.31
2018-09-21T19:16:13.711Z,16.31
2018-09-21T19:18:42.939Z,16.23
2018-09-21T19:21:11.748Z,16.28
2018-09-21T19:23:40.485Z,16.33
2018-09-21T19:26:09.404Z,16.31
2018-09-21T19:28:38.409Z,16.28
2018-09-21T19:31:07.912Z,16.19
2018-09-21T19:33:36.971Z,16.17
2018-09-21T19:36:05.928Z,16.13
2018-09-21T19:38:34.948Z,16.11
2018-09-21T19:41:06.118Z,16.06
2018-09-21T19:43:35.212Z,15.92
2018-09-21T19:46:05.684Z,15.90
2018-09-21T19:48:36.456Z,16.00
2018-09-21T19:51:05.468Z,16.00
2018-09-21T19:53:35.005Z,16.02
2018-09-21T19:56:06.534Z,16.06
2018-09-21T19:58:35.608Z,16.08
2018-09-21T20:01:06.457Z,15.79
2018-09-21T20:03:35.177Z,15.35
2018-09-21T20:06:04.961Z,14.79
2018-09-21T20:08:34.714Z,14.56
2018-09-21T20:11:04.005Z,14.26
2018-09-21T20:13:32.786Z,14.27
2018-09-21T20:16:01.770Z,14.05
2018-09-21T20:18:30.454Z,13.50
2018-09-21T20:20:59.627Z,13.25
2018-09-21T20:23:28.407Z,13.38
2018-09-21T20:25:57.243Z,13.59
2018-09-21T20:28:26.398Z,13.47
2018-09-21T20:31:00.306Z,13.47
2018-09-21T20:33:31.331Z,13.37
2018-09-21T20:36:00.411Z,13.27
2018-09-21T20:38:29.817Z,13.15
2018-09-21T20:40:59.191Z,13.21
2018-09-21T20:43:28.006Z,13.24
2018-09-21T20:45:57.264Z,13.28
2018-09-21T20:48:26.268Z,13.42
2018-09-21T20:50:55.079Z,13.55
2018-09-21T20:53:24.115Z,13.57
2018-09-21T20:55:53.424Z,13.52
2018-09-21T20:58:22.156Z,13.47
2018-09-21T21:00:51.098Z,13.52
2018-09-21T21:03:20.114Z,13.48
2018-09-21T21:05:48.966Z,13.52
2018-09-21T21:08:17.752Z,13.58
2018-09-21T21:10:46.408Z,13.49
2018-09-21T21:13:15.207Z,13.42
2018-09-21T21:15:43.883Z,13.44
2018-09-21T21:20:55.879Z,13.55
2018-09-21T21:23:27.019Z,13.48
2018-09-21T21:25:56.060Z,13.51
2018-09-21T21:28:25.976Z,13.54
2018-09-21T21:30:55.003Z,13.60
2018-09-21T21:33:24.035Z,13.74
2018-09-21T21:35:52.919Z,13.88
2018-09-21T21:38:21.668Z,14.05
2018-09-21T21:40:51.425Z,13.98
2018-09-21T21:43:20.102Z,14.01
2018-09-21T21:45:49.447Z,14.02
2018-09-21T21:48:18.151Z,13.97
2018-09-21T21:50:47.126Z,13.93
2018-09-21T21:53:16.330Z,13.83
2018-09-21T21:55:55.464Z,13.90
2018-09-21T21:58:24.828Z,14.04
2018-09-21T22:00:58.979Z,14.09
2018-09-21T22:03:27.769Z,13.86
2018-09-21T22:08:42.914Z,13.85
2018-09-21T22:11:17.324Z,13.76
2018-09-21T22:13:52.006Z,13.80
2018-09-21T22:16:21.430Z,13.80
2018-09-21T22:18:50.337Z,13.72
2018-09-21T22:21:19.388Z,13.61
2018-09-21T22:23:48.181Z,13.70
2018-09-21T22:26:17.087Z,13.76
2018-09-21T22:28:45.833Z,13.63
2018-09-21T22:31:14.565Z,13.60
2018-09-21T22:33:43.716Z,13.62
2018-09-21T22:36:12.705Z,13.56
2018-09-21T22:38:41.660Z,13.52
2018-09-21T22:41:10.463Z,13.45
2018-09-21T22:43:39.842Z,13.36
2018-09-21T22:46:08.645Z,13.36
2018-09-21T22:48:37.330Z,13.23
2018-09-21T22:51:06.801Z,13.34
2018-09-21T22:53:35.495Z,13.46
2018-09-21T22:56:04.364Z,13.51
2018-09-21T22:58:33.199Z,13.53
2018-09-21T23:01:06.685Z,13.66
2018-09-21T23:03:35.549Z,13.69
2018-09-21T23:06:05.132Z,13.60
2018-09-21T23:08:34.330Z,13.53
2018-09-21T23:11:03.300Z,13.45
2018-09-21T23:13:32.085Z,13.39
2018-09-21T23:16:00.953Z,13.24
2018-09-21T23:18:29.860Z,13.06
2018-09-21T23:20:58.580Z,12.90
2018-09-21T23:23:27.590Z,12.92
2018-09-21T23:25:56.383Z,12.77
2018-09-21T23:28:26.421Z,12.79
2018-09-21T23:30:55.284Z,12.71
2018-09-21T23:33:24.105Z,12.68
2018-09-21T23:35:53.162Z,12.81
2018-09-21T23:38:21.781Z,12.74
2018-09-21T23:40:50.998Z,12.81
2018-09-21T23:43:19.919Z,12.90
2018-09-21T23:45:48.752Z,12.93
2018-09-21T23:48:18.258Z,12.96
2018-09-21T23:50:47.915Z,12.94
2018-09-21T23:53:16.653Z,13.00
2018-09-21T23:55:45.479Z,13.05
2018-09-21T23:58:15.514Z,13.12
